Time;durP1;ratioP1;P1;durP2;ratioP2;P2;SDS_P1;SDS_P2;PMS_P1;PMS_P2;Temp;Humidity;BMP_temperature;BMP_pressure;BME280_temperature;BME280_humidity;BME280_pressure;Samples;Min_cycle;Max_cycle;Signal;HPM_P1;HPM_P2
2023/02/08 00:01:09;;;;;;;10.10;4.25;;;-2.90;99.90;;;;;;5062623;28;20065;-55
2023/02/08 00:03:35;;;;;;;11.18;3.67;;;-2.90;99.90;;;;;;5062188;28;20040;-55
2023/02/08 00:06:01;;;;;;;11.38;3.67;;;-3.00;99.90;;;;;;5081571;28;20048;-55
2023/02/08 00:08:27;;;;;;;9.93;3.40;;;-3.00;99.90;;;;;;5062658;28;20048;-52
2023/02/08 00:10:52;;;;;;;11.35;4.20;;;-2.90;99.90;;;;;;5062805;28;20043;-53
2023/02/08 00:13:18;;;;;;;9.82;2.95;;;-2.90;99.90;;;;;;5060552;28;20255;-55
2023/02/08 00:15:45;;;;;;;15.30;4.10;;;-2.90;99.90;;;;;;5061887;28;20044;-53
2023/02/08 00:18:11;;;;;;;22.48;4.47;;;-2.90;99.90;;;;;;5053564;28;20117;-54
2023/02/08 00:20:41;;;;;;;9.27;4.22;;;-3.00;99.90;;;;;;5035413;28;20090;-52
2023/02/08 00:23:07;;;;;;;7.75;3.58;;;-3.00;99.90;;;;;;5049913;28;20048;-48
2023/02/08 00:25:33;;;;;;;11.40;3.28;;;-3.00;99.90;;;;;;5052318;28;20029;-52
2023/02/08 00:27:58;;;;;;;5.90;2.90;;;-3.00;99.90;;;;;;5048922;28;20079;-53
2023/02/08 00:30:24;;;;;;;9.45;3.38;;;-3.10;99.90;;;;;;5044784;28;20078;-55
2023/02/08 00:32:50;;;;;;;9.15;2.70;;;-3.10;99.90;;;;;;5067827;28;20037;-55
2023/02/08 00:35:16;;;;;;;6.03;2.30;;;-3.10;99.90;;;;;;5080496;28;20035;-52
2023/02/08 00:37:41;;;;;;;5.32;2.40;;;-3.00;99.90;;;;;;5067515;28;20055;-54
2023/02/08 00:40:08;;;;;;;5.32;2.83;;;-3.00;99.90;;;;;;5077447;28;20035;-52
2023/02/08 00:42:33;;;;;;;8.07;2.65;;;-3.00;99.90;;;;;;5073915;28;20036;-54
2023/02/08 00:44:59;;;;;;;7.15;2.65;;;-3.00;99.90;;;;;;5080751;28;20035;-55
2023/02/08 00:47:24;;;;;;;6.35;3.10;;;-3.00;99.90;;;;;;5077263;28;20083;-54
2023/02/08 00:49:50;;;;;;;8.13;2.72;;;-3.00;99.90;;;;;;5079068;28;20029;-54
2023/02/08 00:52:17;;;;;;;9.10;2.47;;;-3.00;99.90;;;;;;5073969;28;20914;-53
2023/02/08 00:54:42;;;;;;;7.70;1.95;;;-3.00;99.90;;;;;;5076302;28;20047;-50
2023/02/08 00:57:08;;;;;;;3.83;1.92;;;-3.00;99.90;;;;;;5075347;28;20044;-55
2023/02/08 00:59:34;;;;;;;4.85;2.33;;;-3.00;99.90;;;;;;5076107;28;20032;-53
2023/02/08 01:01:59;;;;;;;6.47;2.35;;;-3.10;99.90;;;;;;5077463;28;20090;-52
2023/02/08 01:04:25;;;;;;;7.13;2.22;;;-3.10;99.90;;;;;;5069674;28;20036;-51
2023/02/08 01:06:51;;;;;;;7.57;2.20;;;-3.10;99.90;;;;;;5077491;28;20076;-54
2023/02/08 01:09:16;;;;;;;4.22;1.85;;;-3.10;99.90;;;;;;5075846;28;20053;-54
2023/02/08 01:11:42;;;;;;;3.83;1.67;;;-3.10;99.90;;;;;;5072069;28;20044;-56
2023/02/08 01:14:08;;;;;;;15.50;2.72;;;-3.00;99.90;;;;;;5077615;28;20032;-53
2023/02/08 01:16:33;;;;;;;7.93;2.38;;;-3.10;99.90;;;;;;5073182;28;20056;-54
2023/02/08 01:19:02;;;;;;;5.68;2.45;;;-3.10;99.90;;;;;;5077029;28;20082;-54
2023/02/08 01:21:30;;;;;;;4.40;2.25;;;-3.10;99.90;;;;;;5074704;28;20539;-54
2023/02/08 01:23:56;;;;;;;6.03;2.45;;;-3.20;99.90;;;;;;5071961;28;20042;-50
2023/02/08 01:26:23;;;;;;;14.68;2.92;;;-3.20;99.90;;;;;;5076386;28;20048;-53
2023/02/08 01:28:50;;;;;;;7.15;2.45;;;-3.20;99.90;;;;;;5075245;28;20054;-54
2023/02/08 01:31:19;;;;;;;4.20;2.10;;;-3.20;99.90;;;;;;5076694;28;20046;-53
2023/02/08 01:33:45;;;;;;;10.60;2.17;;;-3.20;99.90;;;;;;5069714;28;20037;-55
2023/02/08 01:36:11;;;;;;;5.28;2.05;;;-3.20;99.90;;;;;;5076734;28;20048;-55
2023/02/08 01:38:37;;;;;;;4.15;2.47;;;-3.20;99.90;;;;;;5073378;28;20055;-51
2023/02/08 01:41:04;;;;;;;5.68;2.30;;;-3.20;99.90;;;;;;5078447;28;20064;-56
2023/02/08 01:43:33;;;;;;;5.88;2.50;;;-3.20;99.90;;;;;;5071410;28;20048;-57
2023/02/08 01:45:58;;;;;;;5.72;2.20;;;-3.20;99.90;;;;;;5073656;28;20837;-56
2023/02/08 01:48:37;;;;;;;5.32;2.15;;;-3.20;99.90;;;;;;5070038;28;20047;-56
2023/02/08 01:51:12;;;;;;;6.65;2.35;;;-3.20;99.90;;;;;;5075836;28;20044;-50
2023/02/08 01:53:39;;;;;;;4.05;2.17;;;-3.20;99.90;;;;;;5072260;28;20071;-54
2023/02/08 01:56:10;;;;;;;5.05;2.20;;;-3.20;99.90;;;;;;5079183;28;20051;-50
2023/02/08 01:58:40;;;;;;;5.53;2.20;;;-3.20;99.90;;;;;;5070907;28;20061;-54
2023/02/08 02:01:07;;;;;;;5.15;2.33;;;-3.20;99.90;;;;;;5076082;28;20040;-53
2023/02/08 02:03:33;;;;;;;6.43;2.10;;;-3.20;99.90;;;;;;5073549;28;20044;-52
2023/02/08 02:06:11;;;;;;;8.65;2.67;;;-3.20;99.90;;;;;;5079194;28;20036;-54
2023/02/08 02:08:41;;;;;;;4.63;2.05;;;-3.20;99.90;;;;;;5073793;28;20488;-53
2023/02/08 02:11:07;;;;;;;4.25;2.30;;;-3.20;99.90;;;;;;5077377;28;20502;-51
2023/02/08 02:13:35;;;;;;;6.45;2.20;;;-3.20;99.90;;;;;;5066338;28;20032;-50
2023/02/08 02:16:01;;;;;;;10.50;2.20;;;-3.30;99.90;;;;;;5067101;28;20044;-50
2023/02/08 02:18:30;;;;;;;11.98;2.63;;;-3.40;99.90;;;;;;5073274;28;20039;-53
2023/02/08 02:21:14;;;;;;;7.00;2.13;;;-3.40;99.90;;;;;;5075074;28;20040;-51
2023/02/08 02:23:59;;;;;;;6.22;2.10;;;-3.40;99.90;;;;;;5078161;28;20058;-52
2023/02/08 02:26:59;;;;;;;4.68;2.03;;;-3.40;99.90;;;;;;5076018;28;20185;-54
2023/02/08 02:29:37;;;;;;;12.55;2.97;;;-3.40;99.90;;;;;;5074339;28;20040;-52
2023/02/08 02:32:15;;;;;;;5.20;2.47;;;-3.40;99.90;;;;;;5068307;28;20428;-54
2023/02/08 02:35:03;;;;;;;5.72;2.60;;;-3.50;99.90;;;;;;5068517;28;20396;-51
2023/02/08 02:37:48;;;;;;;5.20;1.90;;;-3.50;99.90;;;;;;5068932;28;20036;-56
2023/02/08 02:40:27;;;;;;;5.88;2.40;;;-3.50;99.90;;;;;;5070514;28;20048;-55
2023/02/08 02:46:23;;;;;;;6.78;2.28;;;-3.60;99.90;;;;;;5078083;28;20047;-58
2023/02/08 02:49:03;;;;;;;5.40;2.35;;;-3.60;99.90;;;;;;5076663;28;20101;-52
2023/02/08 02:51:44;;;;;;;6.22;2.15;;;-3.50;99.90;;;;;;5072243;28;20036;-56
2023/02/08 02:54:18;;;;;;;4.95;2.10;;;-3.50;99.90;;;;;;5072694;28;20071;-57
2023/02/08 02:56:47;;;;;;;11.27;2.42;;;-3.50;99.90;;;;;;5074279;28;20051;-53
2023/02/08 02:59:14;;;;;;;5.50;2.20;;;-3.50;99.90;;;;;;5077149;28;20043;-55
2023/02/08 03:01:43;;;;;;;6.85;1.92;;;-3.50;99.90;;;;;;5075741;28;20036;-55
2023/02/08 03:04:31;;;;;;;4.03;2.13;;;-3.50;99.90;;;;;;5075473;28;20490;-58
2023/02/08 03:07:06;;;;;;;5.57;2.38;;;-3.50;99.90;;;;;;5073630;28;20504;-55
2023/02/08 03:09:53;;;;;;;9.25;2.22;;;-3.50;99.90;;;;;;5073961;28;20408;-51
2023/02/08 03:12:56;;;;;;;5.50;2.40;;;-3.50;99.90;;;;;;5072062;28;20036;-53
2023/02/08 03:15:40;;;;;;;3.47;1.92;;;-3.40;99.90;;;;;;5065666;28;20044;-54
2023/02/08 03:18:29;;;;;;;5.05;2.20;;;-3.40;99.90;;;;;;5067468;28;20094;-49
2023/02/08 03:21:01;;;;;;;5.85;2.42;;;-3.40;99.90;;;;;;5073460;28;20664;-51
2023/02/08 03:23:29;;;;;;;4.80;2.55;;;-3.50;99.90;;;;;;5075066;28;20057;-56
2023/02/08 03:26:10;;;;;;;4.28;1.95;;;-3.50;99.90;;;;;;5069294;28;20041;-52
2023/02/08 03:28:44;;;;;;;5.95;2.05;;;-3.50;99.90;;;;;;5071259;28;20036;-54
2023/02/08 03:31:36;;;;;;;4.97;2.28;;;-3.40;99.90;;;;;;5073379;28;20039;-55
2023/02/08 03:34:17;;;;;;;4.78;2.30;;;-3.40;99.90;;;;;;5070672;28;20032;-53
2023/02/08 03:36:49;;;;;;;7.97;2.58;;;-3.40;99.90;;;;;;5065078;28;20169;-50
2023/02/08 03:39:20;;;;;;;4.35;2.20;;;-3.40;99.90;;;;;;5071819;28;20040;-53
2023/02/08 03:41:50;;;;;;;6.32;2.25;;;-3.50;99.90;;;;;;5074511;28;20066;-53
2023/02/08 03:44:20;;;;;;;6.20;2.20;;;-3.50;99.90;;;;;;5068507;28;20164;-52
2023/02/08 03:47:00;;;;;;;6.80;2.80;;;-3.50;99.90;;;;;;5070863;28;20045;-55
2023/02/08 03:49:31;;;;;;;8.45;2.38;;;-3.50;99.90;;;;;;5074696;28;20044;-53
2023/02/08 03:52:00;;;;;;;5.55;2.35;;;-3.50;99.90;;;;;;5075823;28;20036;-54
2023/02/08 03:54:29;;;;;;;4.65;2.30;;;-3.60;99.90;;;;;;5078084;28;20110;-50
2023/02/08 03:56:58;;;;;;;7.63;2.67;;;-3.50;99.90;;;;;;5078625;28;20089;-53
2023/02/08 03:59:28;;;;;;;4.88;2.22;;;-3.50;99.90;;;;;;5074891;28;20032;-56
2023/02/08 04:02:01;;;;;;;5.82;2.38;;;-3.50;99.90;;;;;;5074623;28;20552;-52
2023/02/08 04:04:32;;;;;;;5.70;2.53;;;-3.50;99.90;;;;;;5072022;28;20044;-52
2023/02/08 04:06:58;;;;;;;6.85;2.42;;;-3.50;99.90;;;;;;5079992;28;20059;-56
2023/02/08 04:09:24;;;;;;;6.53;2.33;;;-3.50;99.90;;;;;;5073578;28;20356;-53
2023/02/08 04:11:49;;;;;;;3.25;1.70;;;-3.50;99.90;;;;;;5078929;28;20078;-55
2023/02/08 04:14:15;;;;;;;4.65;1.85;;;-3.50;99.90;;;;;;5070278;28;20025;-54
2023/02/08 04:16:41;;;;;;;8.77;1.90;;;-3.50;99.90;;;;;;5075628;28;20035;-52
2023/02/08 04:19:06;;;;;;;4.22;2.00;;;-3.50;99.90;;;;;;5077730;28;20123;-49
2023/02/08 04:21:32;;;;;;;6.20;2.22;;;-3.60;99.90;;;;;;5077076;28;20651;-52
2023/02/08 04:23:58;;;;;;;7.05;1.88;;;-3.60;99.90;;;;;;5071726;28;20041;-55
2023/02/08 04:26:23;;;;;;;5.03;2.03;;;-3.60;99.90;;;;;;5076760;28;20055;-54
2023/02/08 04:28:49;;;;;;;4.57;2.15;;;-3.70;99.90;;;;;;5072429;28;20036;-51
2023/02/08 04:31:14;;;;;;;9.73;2.15;;;-3.70;99.90;;;;;;5076988;28;20035;-56
2023/02/08 04:33:40;;;;;;;3.65;1.85;;;-3.70;99.90;;;;;;5071832;28;20062;-54
2023/02/08 04:36:06;;;;;;;3.88;1.85;;;-3.70;99.90;;;;;;5078649;28;20082;-53
2023/02/08 04:38:31;;;;;;;3.88;1.75;;;-3.70;99.90;;;;;;5074071;28;20044;-57
2023/02/08 04:40:57;;;;;;;5.40;1.90;;;-3.70;99.90;;;;;;5079900;28;21603;-52
2023/02/08 04:43:23;;;;;;;5.15;2.28;;;-3.60;99.90;;;;;;5070215;28;20036;-55
2023/02/08 04:45:50;;;;;;;7.55;2.53;;;-3.60;99.90;;;;;;5071184;28;20131;-52
2023/02/08 04:48:16;;;;;;;3.58;1.90;;;-3.60;99.90;;;;;;5073980;28;20036;-55
2023/02/08 04:50:42;;;;;;;5.70;1.92;;;-3.60;99.90;;;;;;5079878;28;20071;-55
2023/02/08 04:53:07;;;;;;;3.80;1.40;;;-3.60;99.90;;;;;;5073310;28;20051;-56
2023/02/08 04:55:33;;;;;;;6.00;2.45;;;-3.60;99.90;;;;;;5079701;28;20114;-52
2023/02/08 04:57:59;;;;;;;3.60;1.98;;;-3.70;99.90;;;;;;5076468;28;20047;-53
2023/02/08 05:00:24;;;;;;;4.43;1.70;;;-3.70;99.90;;;;;;5078416;28;20492;-54
2023/02/08 05:02:54;;;;;;;7.60;1.30;;;;;;;;;;5072244;28;20071;-56
2023/02/08 05:05:20;;;;;;;7.00;2.08;;;;;;;;;;5075726;28;20498;-55
2023/02/08 05:07:46;;;;;;;4.28;1.70;;;;;;;;;;5073140;28;20113;-56
2023/02/08 05:10:12;;;;;;;2.95;1.73;;;;;;;;;;5074529;28;20127;-54
2023/02/08 05:12:38;;;;;;;3.80;1.45;;;;;;;;;;5070705;28;20136;-56
2023/02/08 05:15:04;;;;;;;4.50;1.75;;;;;;;;;;5072005;28;20126;-52
2023/02/08 05:17:30;;;;;;;4.05;1.75;;;;;;;;;;5075053;28;20070;-54
2023/02/08 05:19:56;;;;;;;5.95;1.90;;;;;;;;;;5077365;28;20424;-53
2023/02/08 05:22:22;;;;;;;2.78;1.70;;;;;;;;;;5079501;28;20043;-55
2023/02/08 05:24:48;;;;;;;3.42;1.65;;;;;;;;;;5075349;28;20209;-56
2023/02/08 05:27:14;;;;;;;3.10;1.55;;;;;;;;;;5074004;28;20404;-54
2023/02/08 05:29:41;;;;;;;4.03;1.58;;;;;;;;;;5067071;28;20032;-54
2023/02/08 05:32:08;;;;;;;4.20;1.85;;;;;;;;;;5074897;28;20039;-55
2023/02/08 05:34:34;;;;;;;4.47;1.95;;;;;;;;;;5074563;28;20055;-55
2023/02/08 05:37:00;;;;;;;2.80;1.75;;;;;;;;;;5077042;28;20083;-51
2023/02/08 05:39:26;;;;;;;5.18;2.28;;;;;;;;;;5074055;28;20519;-56
2023/02/08 05:41:52;;;;;;;8.00;1.98;;;;;;;;;;5077619;28;20063;-53
2023/02/08 05:44:17;;;;;;;3.47;2.08;;;;;;;;;;5079236;28;20028;-53
2023/02/08 05:46:43;;;;;;;5.15;2.20;;;;;;;;;;5074197;28;20048;-56
2023/02/08 05:49:10;;;;;;;4.25;1.52;;;;;;;;;;5072196;28;20047;-55
2023/02/08 05:51:35;;;;;;;8.20;1.73;;;;;;;;;;5076435;28;20446;-54
2023/02/08 05:54:02;;;;;;;3.83;1.60;;;;;;;;;;5070816;28;20063;-57
2023/02/08 05:56:28;;;;;;;6.20;2.08;;;;;;;;;;5075839;28;20044;-52
2023/02/08 05:58:54;;;;;;;7.45;2.15;;;;;;;;;;5070337;28;20040;-51
2023/02/08 06:01:20;;;;;;;4.05;1.92;;;;;;;;;;5057773;28;20504;-54
2023/02/08 06:03:46;;;;;;;7.47;1.65;;;;;;;;;;5052615;28;20063;-55
2023/02/08 06:06:12;;;;;;;5.10;1.40;;;;;;;;;;5057999;28;20044;-51
2023/02/08 06:08:39;;;;;;;3.95;1.80;;;;;;;;;;5045374;28;20041;-51
2023/02/08 06:11:05;;;;;;;4.70;1.92;;;;;;;;;;5072502;28;20672;-56
2023/02/08 06:13:32;;;;;;;4.38;1.73;;;;;;;;;;5045548;28;20604;-51
2023/02/08 06:15:58;;;;;;;6.70;2.20;;;;;;;;;;5047611;28;20040;-56
2023/02/08 06:18:24;;;;;;;10.65;1.80;;;;;;;;;;5043824;28;20519;-53
2023/02/08 06:20:53;;;;;;;3.20;1.70;;;;;;;;;;5052104;28;20040;-57
2023/02/08 06:23:19;;;;;;;3.28;1.42;;;;;;;;;;5051688;28;20040;-60
2023/02/08 06:25:45;;;;;;;7.78;1.60;;;;;;;;;;5056603;28;20044;-55
2023/02/08 06:28:11;;;;;;;13.88;2.90;;;;;;;;;;5048572;28;20504;-55
2023/02/08 06:30:38;;;;;;;4.63;1.70;;;;;;;;;;5049328;28;20033;-57
2023/02/08 06:33:04;;;;;;;4.05;1.80;;;;;;;;;;5041284;28;20043;-57
2023/02/08 06:35:30;;;;;;;8.43;2.10;;;;;;;;;;5057055;28;20076;-56
2023/02/08 06:37:57;;;;;;;7.85;1.90;;;;;;;;;;5041271;28;20067;-55
2023/02/08 06:40:24;;;;;;;6.90;1.60;;;;;;;;;;5038510;28;20090;-53
2023/02/08 06:42:50;;;;;;;6.05;2.22;;;;;;;;;;5040506;28;20655;-58
2023/02/08 06:45:16;;;;;;;8.52;2.13;;;;;;;;;;5039672;28;20037;-57
2023/02/08 06:47:42;;;;;;;4.03;1.80;;;;;;;;;;5040582;28;20713;-56
2023/02/08 06:50:09;;;;;;;7.00;1.73;;;;;;;;;;5056196;28;20120;-57
2023/02/08 06:52:35;;;;;;;8.02;1.92;;;;;;;;;;5048708;28;20051;-59
2023/02/08 06:55:01;;;;;;;5.80;1.65;;;;;;;;;;5054579;28;20041;-59
2023/02/08 06:57:27;;;;;;;8.02;2.60;;;;;;;;;;5052696;28;20032;-59
2023/02/08 06:59:53;;;;;;;9.60;2.40;;;;;;;;;;5052217;28;20051;-55
2023/02/08 07:02:20;;;;;;;5.35;2.08;;;;;;;;;;5049826;28;20037;-55
2023/02/08 07:04:47;;;;;;;7.97;3.00;;;;;;;;;;5046609;28;20087;-53
2023/02/08 07:07:13;;;;;;;9.90;3.50;;;;;;;;;;5049357;28;20043;-52
2023/02/08 07:09:39;;;;;;;13.07;4.53;;;;;;;;;;5053021;28;20040;-52
2023/02/08 07:12:05;;;;;;;9.63;4.00;;;;;;;;;;5054859;28;20091;-52
2023/02/08 07:14:32;;;;;;;19.50;6.68;;;;;;;;;;5049036;28;20036;-56
2023/02/08 07:16:58;;;;;;;13.32;5.70;;;;;;;;;;5052473;28;20041;-55
2023/02/08 07:19:24;;;;;;;22.75;9.40;;;;;;;;;;5049385;28;20025;-55
2023/02/08 07:21:50;;;;;;;36.60;14.70;;;;;;;;;;5053752;28;20400;-52
2023/02/08 07:24:16;;;;;;;22.55;7.90;;;;;;;;;;5045301;28;20042;-55
2023/02/08 07:26:42;;;;;;;25.58;6.38;;;;;;;;;;5051139;28;20505;-56
2023/02/08 07:29:09;;;;;;;15.38;5.15;;;;;;;;;;5049456;28;20186;-56
2023/02/08 07:31:34;;;;;;;9.30;4.57;;;;;;;;;;5051703;28;20120;-50
2023/02/08 07:34:01;;;;;;;13.50;5.75;;;;;;;;;;5045783;28;20588;-56
2023/02/08 07:36:27;;;;;;;17.00;7.03;;;;;;;;;;5044773;28;20080;-55
2023/02/08 07:38:53;;;;;;;17.73;6.85;;;;;;;;;;5049418;28;20041;-57
2023/02/08 07:41:19;;;;;;;17.67;8.13;;;;;;;;;;5063212;28;20119;-55
2023/02/08 07:43:45;;;;;;;25.25;8.02;;;;;;;;;;5044184;28;20071;-56
2023/02/08 07:46:11;;;;;;;17.48;6.82;;;;;;;;;;5044186;28;20037;-53
2023/02/08 07:48:37;;;;;;;13.35;5.65;;;;;;;;;;5049273;28;20064;-51
2023/02/08 07:51:03;;;;;;;18.67;7.75;;;;;;;;;;5046207;28;20090;-57
2023/02/08 07:53:30;;;;;;;12.85;5.22;;;;;;;;;;5045625;28;20061;-54
2023/02/08 07:55:56;;;;;;;15.10;5.05;;;;;;;;;;5045052;28;20044;-55
2023/02/08 07:58:22;;;;;;;12.05;4.68;;;;;;;;;;5049528;28;20052;-57
2023/02/08 08:00:48;;;;;;;23.60;3.92;;;;;;;;;;5046595;28;20493;-55
2023/02/08 08:03:14;;;;;;;13.45;4.03;;;;;;;;;;5044410;28;20040;-55
2023/02/08 08:05:41;;;;;;;13.35;4.18;;;;;;;;;;5042924;28;20094;-57
2023/02/08 08:08:07;;;;;;;9.07;3.28;;;;;;;;;;5043453;28;20064;-56
2023/02/08 08:10:33;;;;;;;16.02;3.60;;;;;;;;;;5058381;28;20083;-51
2023/02/08 08:12:59;;;;;;;13.57;3.95;;;;;;;;;;5044039;28;20044;-52
2023/02/08 08:15:26;;;;;;;10.48;3.60;;;;;;;;;;5059756;28;20124;-52
2023/02/08 08:17:52;;;;;;;8.05;4.00;;;;;;;;;;5043158;28;20059;-57
2023/02/08 08:20:18;;;;;;;19.17;4.60;;;;;;;;;;5044415;28;20722;-57
2023/02/08 08:22:44;;;;;;;9.73;5.20;;;;;;;;;;5044355;28;20045;-53
2023/02/08 08:25:10;;;;;;;11.75;4.50;;;;;;;;;;5043944;28;20442;-53
2023/02/08 08:27:36;;;;;;;14.48;4.10;;;;;;;;;;5042730;28;20083;-53
2023/02/08 08:30:03;;;;;;;9.00;3.90;;;;;;;;;;5045166;28;20032;-53
2023/02/08 08:32:30;;;;;;;12.23;3.90;;;;;;;;;;5049335;28;20519;-53
2023/02/08 08:34:56;;;;;;;10.73;3.53;;;;;;;;;;5064889;28;20036;-56
2023/02/08 08:37:22;;;;;;;15.68;3.83;;;;;;;;;;5065187;28;20044;-55
2023/02/08 08:39:49;;;;;;;13.57;4.53;;;;;;;;;;5063873;28;20565;-55
2023/02/08 08:42:15;;;;;;;6.57;3.60;;;;;;;;;;5066570;28;20214;-57
2023/02/08 08:44:41;;;;;;;10.95;3.67;;;;;;;;;;5063356;28;20435;-58
2023/02/08 08:47:08;;;;;;;8.70;3.55;;;;;;;;;;5062921;28;20635;-57
2023/02/08 08:49:34;;;;;;;20.05;4.50;;;;;;;;;;5064778;28;20037;-55
2023/02/08 08:52:00;;;;;;;9.88;3.50;;;;;;;;;;5066462;28;20028;-56
2023/02/08 08:54:26;;;;;;;10.52;3.97;;;;;;;;;;5080125;28;20032;-56
2023/02/08 08:56:52;;;;;;;13.82;3.28;;;;;;;;;;5076478;28;20068;-54
2023/02/08 08:59:19;;;;;;;15.32;4.28;;;;;;;;;;5073021;28;20510;-52
2023/02/08 09:01:45;;;;;;;24.63;4.15;;;;;;;;;;5065840;28;20052;-54
2023/02/08 09:04:11;;;;;;;10.95;2.92;;;;;;;;;;5064063;28;20044;-56
2023/02/08 09:06:37;;;;;;;8.25;2.92;;;;;;;;;;5063159;28;20048;-56
2023/02/08 09:09:04;;;;;;;8.63;2.80;;;;;;;;;;5064162;28;20028;-54
2023/02/08 09:11:32;;;;;;;8.85;2.83;;;;;;;;;;5097244;27;20044;-55
2023/02/08 09:13:58;;;;;;;9.20;3.47;;;;;;;;;;5066776;28;20358;-55
2023/02/08 09:16:24;;;;;;;5.72;2.80;;;;;;;;;;5062613;28;20044;-54
2023/02/08 09:18:50;;;;;;;4.57;2.58;;;;;;;;;;5065321;28;20089;-54
2023/02/08 09:21:20;;;;;;;8.57;2.42;;;;;;;;;;5062378;28;20036;-57
2023/02/08 09:23:47;;;;;;;8.07;2.60;;;;;;;;;;5066241;28;20400;-54
2023/02/08 09:26:13;;;;;;;16.23;2.92;;;;;;;;;;5061135;28;20044;-56
2023/02/08 09:28:39;;;;;;;14.95;2.63;;;;;;;;;;5106080;27;20039;-58
2023/02/08 09:31:14;;;;;;;14.32;2.78;;;;;;;;;;5061313;28;20040;-57
2023/02/08 09:33:40;;;;;;;6.05;1.95;;;;;;;;;;5048017;28;20029;-55
2023/02/08 09:36:07;;;;;;;4.13;2.00;;;;;;;;;;5051720;28;20083;-57
2023/02/08 09:38:33;;;;;;;4.20;2.30;;;;;;;;;;5045603;28;20029;-54
2023/02/08 09:41:06;;;;;;;5.93;1.80;;;;;;;;;;5054926;28;20045;-55
2023/02/08 09:43:52;;;;;;;9.32;2.28;;;;;;;;;;5049210;28;20032;-56
2023/02/08 09:46:22;;;;;;;7.75;1.73;;;;;;;;;;5050120;28;20049;-57
2023/02/08 09:48:50;;;;;;;2.40;1.20;;;;;;;;;;5046062;28;20049;-53
2023/02/08 09:51:39;;;;;;;14.65;2.85;;;;;;;;;;5043857;28;20083;-53
2023/02/08 09:54:15;;;;;;;4.03;1.75;;;;;;;;;;5038522;28;20052;-55
2023/02/08 09:56:42;;;;;;;2.42;1.30;;;;;;;;;;5052718;28;20132;-57
2023/02/08 09:59:23;;;;;;;7.90;1.80;;;;;;;;;;5051962;28;20055;-53
2023/02/08 10:01:50;;;;;;;4.90;1.88;;;;;;;;;;5065545;28;20131;-52
2023/02/08 10:04:29;;;;;;;6.15;3.30;;;;;;;;;;5068074;28;20036;-56
2023/02/08 10:06:56;;;;;;;3.50;1.67;;;;;;;;;;5070013;28;20546;-56
2023/02/08 10:09:25;;;;;;;12.82;2.42;;;;;;;;;;5070423;28;20162;-56
2023/02/08 10:12:03;;;;;;;3.40;1.23;;;;;;;;;;5062249;28;20385;-53
2023/02/08 10:14:29;;;;;;;6.30;1.50;;;;;;;;;;5076939;28;20040;-55
2023/02/08 10:17:15;;;;;;;4.90;1.77;;;;;;;;;;5073252;28;20053;-52
2023/02/08 10:19:47;;;;;;;4.22;1.63;;;;;;;;;;5043159;28;20090;-57
2023/02/08 10:22:22;;;;;;;5.70;1.40;;;;;;;;;;5073751;28;20412;-52
2023/02/08 10:24:58;;;;;;;3.53;1.38;;;;;;;;;;5073871;28;20170;-58
2023/02/08 10:27:36;;;;;;;3.92;1.63;;;;;;;;;;5073529;28;20094;-57
2023/02/08 10:30:02;;;;;;;5.90;1.77;;;;;;;;;;5070529;28;20047;-52
2023/02/08 10:32:52;;;;;;;8.77;2.08;;;;;;;;;;5073444;28;20044;-55
2023/02/08 10:35:36;;;;;;;3.58;1.58;;;;;;;;;;5070869;28;20086;-57
2023/02/08 10:38:22;;;;;;;7.13;1.27;;;;;;;;;;5070754;28;20044;-51
2023/02/08 10:40:54;;;;;;;2.17;1.15;;;;;;;;;;5066161;28;20414;-56
2023/02/08 10:43:35;;;;;;;2.17;1.00;;;;;;;;;;5073024;28;20036;-51
2023/02/08 10:46:04;;;;;;;3.30;1.27;;;;;;;;;;5072255;28;20443;-58
2023/02/08 10:48:36;;;;;;;1.38;0.82;;;;;;;;;;5064753;28;20036;-56
2023/02/08 10:51:02;;;;;;;7.00;1.38;;;;;;;;;;5074579;28;20093;-54
2023/02/08 10:53:28;;;;;;;2.13;0.90;;;;;;;;;;5064802;28;20078;-54
2023/02/08 10:55:54;;;;;;;1.67;0.75;;;;;;;;;;5065475;28;20447;-55
2023/02/08 10:58:24;;;;;;;2.65;0.93;;;;;;;;;;5069706;28;20035;-57
2023/02/08 11:00:50;;;;;;;4.22;1.35;;;;;;;;;;5062242;28;20556;-56
2023/02/08 11:03:23;;;;;;;1.80;1.00;;;;;;;;;;5056098;28;20390;-57
2023/02/08 11:05:50;;;;;;;4.30;1.20;;;;;;;;;;5061455;28;20040;-56
2023/02/08 11:08:18;;;;;;;3.92;1.25;;;;;;;;;;5061235;28;20040;-55
2023/02/08 11:10:46;;;;;;;3.30;1.35;;;;;;;;;;5061900;28;20076;-57
2023/02/08 11:13:12;;;;;;;6.15;1.17;;;;;;;;;;5058561;28;20047;-55
2023/02/08 11:15:40;;;;;;;8.70;1.63;;;;;;;;;;5059601;28;20412;-53
2023/02/08 11:18:07;;;;;;;2.85;1.40;;;;;;;;;;5061595;28;20036;-59
2023/02/08 11:20:38;;;;;;;4.90;1.45;;;;;;;;;;5075658;28;20150;-57
2023/02/08 11:23:05;;;;;;;2.60;1.30;;;;;;;;;;5063032;28;20040;-54
2023/02/08 11:25:38;;;;;;;2.05;1.23;;;;;;;;;;5060778;28;20051;-57
2023/02/08 11:28:04;;;;;;;1.90;1.13;;;;;;;;;;5057093;28;20037;-58
2023/02/08 11:30:32;;;;;;;6.32;1.90;;;;;;;;;;5056027;28;20484;-56
2023/02/08 11:33:27;;;;;;;4.93;1.50;;;;;;;;;;5041792;28;20060;-59
2023/02/08 11:36:04;;;;;;;1.55;1.00;;;;;;;;;;5030918;28;20131;-57
2023/02/08 11:38:31;;;;;;;2.03;1.10;;;;;;;;;;5040709;28;20037;-58
2023/02/08 11:40:58;;;;;;;2.35;1.30;;;;;;;;;;5041761;28;20033;-59
2023/02/08 11:43:29;;;;;;;3.22;1.40;;;;;;;;;;5039831;28;20124;-57
2023/02/08 11:45:56;;;;;;;3.55;1.50;;;;;;;;;;5037146;28;20076;-50
2023/02/08 11:48:25;;;;;;;3.47;1.60;;;;;;;;;;5042753;28;20045;-58
2023/02/08 11:50:55;;;;;;;4.30;1.45;;;;;;;;;;5041392;28;20556;-60
2023/02/08 11:53:26;;;;;;;1.98;1.23;;;;;;;;;;5044928;28;20041;-57
2023/02/08 11:56:05;;;;;;;1.85;1.10;;;;;;;;;;5044742;28;20039;-56
2023/02/08 11:58:31;;;;;;;4.10;1.20;;;;;;;;;;5043288;28;20037;-55
2023/02/08 12:01:05;;;;;;;2.65;1.40;;;;;;;;;;5040936;28;20041;-55
2023/02/08 12:03:37;;;;;;;8.45;1.48;;;;;;;;;;5040381;28;20037;-57
2023/02/08 12:06:21;;;;;;;2.65;1.35;;;;;;;;;;5039227;28;20029;-52
2023/02/08 12:09:06;;;;;;;3.50;1.42;;;;;;;;;;5037836;28;20084;-56
2023/02/08 12:11:41;;;;;;;4.63;1.33;;;;;;;;;;5038666;28;20033;-57
2023/02/08 12:14:10;;;;;;;5.40;1.50;;;;;;;;;;5039438;28;20037;-58
2023/02/08 12:16:36;;;;;;;5.00;1.15;;;;;;;;;;5042291;28;20091;-56
2023/02/08 12:19:21;;;;;;;2.13;1.13;;;;;;;;;;5054795;28;20024;-59
2023/02/08 12:21:49;;;;;;;10.18;1.73;;;;;;;;;;5055205;28;20033;-57
2023/02/08 12:24:18;;;;;;;8.18;1.33;;;;;;;;;;5057386;28;20051;-52
2023/02/08 12:26:47;;;;;;;4.47;1.50;;;;;;;;;;5054351;28;20139;-54
2023/02/08 12:29:32;;;;;;;4.22;1.52;;;;;;;;;;5049386;28;20165;-57
2023/02/08 12:32:12;;;;;;;4.68;1.35;;;;;;;;;;5049873;28;20128;-57
2023/02/08 12:34:41;;;;;;;2.78;1.52;;;;;;;;;;5054669;28;20504;-56
2023/02/08 12:43:00;;;;;;;2.03;1.15;;;;;;;;;;5044114;28;20091;-53
2023/02/08 12:45:38;;;;;;;6.43;1.33;;;;;;;;;;5054050;28;20098;-56
2023/02/08 12:48:23;;;;;;;2.97;1.67;;;;;;;;;;5048161;28;20120;-58
2023/02/08 12:51:12;;;;;;;2.40;1.20;;;;;;;;;;5058072;28;20040;-58
2023/02/08 12:53:44;;;;;;;7.90;1.63;;;;;;;;;;5040387;28;20056;-55
2023/02/08 12:56:15;;;;;;;1.98;1.13;;;;;;;;;;5054769;28;20036;-56
2023/02/08 12:58:44;;;;;;;3.85;1.30;;;;;;;;;;5050395;28;20041;-57
2023/02/08 13:01:30;;;;;;;7.75;1.05;;;;;;;;;;5057421;28;20060;-55
2023/02/08 13:04:10;;;;;;;2.33;1.08;;;;;;;;;;5056665;28;20078;-58
2023/02/08 13:06:44;;;;;;;6.18;1.20;;;;;;;;;;5053264;28;21034;-52
2023/02/08 13:09:38;;;;;;;2.03;1.10;;;;;;;;;;5046514;28;20131;-53
2023/02/08 13:12:04;;;;;;;5.13;1.10;;;;;;;;;;5042689;28;20051;-52
2023/02/08 13:14:36;;;;;;;2.47;1.27;;;;;;;;;;5041483;28;20041;-60
2023/02/08 13:17:09;;;;;;;2.90;1.60;;;;;;;;;;5041027;28;20500;-58
2023/02/08 13:19:55;;;;;;;2.08;1.15;;;;;;;;;;5036955;28;20044;-55
2023/02/08 13:22:22;;;;;;;2.75;1.40;;;;;;;;;;5040721;28;20966;-54
2023/02/08 13:24:48;;;;;;;3.78;1.20;;;;;;;;;;5058501;28;20040;-56
2023/02/08 13:27:16;;;;;;;2.38;1.30;;;;;;;;;;5040949;28;20048;-52
2023/02/08 13:29:46;;;;;;;3.22;1.63;;;;;;;;;;5055614;28;20044;-51
2023/02/08 13:32:15;;;;;;;4.80;1.63;;;;;;;;;;5040312;28;20052;-55
2023/02/08 13:34:44;;;;;;;3.60;1.60;;;;;;;;;;5042965;28;20582;-50
2023/02/08 13:37:21;;;;;;;4.38;1.50;;;;;;;;;;5073452;28;20127;-54
2023/02/08 13:39:47;;;;;;;2.60;1.45;;;;;;;;;;5041934;28;20090;-55
2023/02/08 13:42:20;;;;;;;3.63;2.00;;;;;;;;;;5042139;28;20037;-55
2023/02/08 13:44:50;;;;;;;2.50;1.40;;;;;;;;;;5041821;28;20041;-52
2023/02/08 13:47:27;;;;;;;3.10;1.80;;;;;;;;;;5074612;28;20037;-56
2023/02/08 13:49:54;;;;;;;5.35;1.48;;;;;;;;;;5041911;28;20149;-61
2023/02/08 13:52:33;;;;;;;2.70;1.58;;;;;;;;;;5042993;28;20162;-51
2023/02/08 13:55:17;;;;;;;3.33;1.60;;;;;;;;;;5042124;28;20033;-57
2023/02/08 13:57:51;;;;;;;4.10;1.85;;;;;;;;;;5041041;28;20123;-52
2023/02/08 14:00:22;;;;;;;3.08;1.80;;;;;;;;;;5041078;28;20067;-57
2023/02/08 14:03:08;;;;;;;2.97;1.80;;;;;;;;;;5047662;28;20146;-56
2023/02/08 14:05:56;;;;;;;5.03;2.22;;;;;;;;;;5047215;28;20048;-58
2023/02/08 14:08:27;;;;;;;5.10;2.30;;;;;;;;;;5051791;28;20134;-56
2023/02/08 14:11:15;;;;;;;4.13;2.00;;;;;;;;;;5056194;28;20090;-57
2023/02/08 14:13:44;;;;;;;4.32;2.30;;;;;;;;;;5051666;28;20078;-61
2023/02/08 14:16:25;;;;;;;4.78;2.50;;;;;;;;;;5057149;28;20040;-57
2023/02/08 14:18:52;;;;;;;6.45;2.30;;;;;;;;;;5049139;28;20058;-56
2023/02/08 14:21:31;;;;;;;8.57;2.75;;;;;;;;;;5046551;28;20392;-54